sensor_id;sensor_type;location;lat;lon;timestamp;P1;durP1;ratioP1;P2;durP2;ratioP2
10432;SDS011;5263;48.680;9.004;2023-12-07T00:00:40;10.70;;;8.43;;
10432;SDS011;5263;48.680;9.004;2023-12-07T00:03:06;11.53;;;9.07;;
10432;SDS011;5263;48.680;9.004;2023-12-07T00:05:32;10.53;;;8.37;;
10432;SDS011;5263;48.680;9.004;2023-12-07T00:07:57;11.37;;;8.20;;
10432;SDS011;5263;48.680;9.004;2023-12-07T00:10:23;9.53;;;7.77;;
10432;SDS011;5263;48.680;9.004;2023-12-07T00:12:49;10.00;;;8.27;;
10432;SDS011;5263;48.680;9.004;2023-12-07T00:15:14;14.57;;;8.83;;
10432;SDS011;5263;48.680;9.004;2023-12-07T00:17:40;11.90;;;8.70;;
10432;SDS011;5263;48.680;9.004;2023-12-07T00:20:05;9.80;;;8.40;;
10432;SDS011;5263;48.680;9.004;2023-12-07T00:22:31;10.30;;;8.90;;
10432;SDS011;5263;48.680;9.004;2023-12-07T00:24:57;10.57;;;8.33;;
10432;SDS011;5263;48.680;9.004;2023-12-07T00:27:22;10.50;;;7.87;;
10432;SDS011;5263;48.680;9.004;2023-12-07T00:29:48;11.50;;;7.70;;
10432;SDS011;5263;48.680;9.004;2023-12-07T00:32:13;10.20;;;7.80;;
10432;SDS011;5263;48.680;9.004;2023-12-07T00:34:39;12.63;;;6.30;;
10432;SDS011;5263;48.680;9.004;2023-12-07T00:37:04;13.03;;;6.87;;
10432;SDS011;5263;48.680;9.004;2023-12-07T00:39:30;8.97;;;6.77;;
10432;SDS011;5263;48.680;9.004;2023-12-07T00:41:56;6.67;;;5.73;;
10432;SDS011;5263;48.680;9.004;2023-12-07T00:44:21;7.40;;;5.43;;
10432;SDS011;5263;48.680;9.004;2023-12-07T00:46:47;9.57;;;6.73;;
10432;SDS011;5263;48.680;9.004;2023-12-07T00:49:12;10.30;;;7.17;;
10432;SDS011;5263;48.680;9.004;2023-12-07T00:51:38;6.57;;;5.70;;
10432;SDS011;5263;48.680;9.004;2023-12-07T00:54:03;9.90;;;7.57;;
10432;SDS011;5263;48.680;9.004;2023-12-07T00:56:29;7.40;;;6.07;;
10432;SDS011;5263;48.680;9.004;2023-12-07T00:58:54;10.37;;;7.37;;
10432;SDS011;5263;48.680;9.004;2023-12-07T01:01:20;13.87;;;7.20;;
10432;SDS011;5263;48.680;9.004;2023-12-07T01:03:45;10.93;;;6.77;;
10432;SDS011;5263;48.680;9.004;2023-12-07T01:06:11;8.87;;;6.60;;
10432;SDS011;5263;48.680;9.004;2023-12-07T01:08:37;9.03;;;7.27;;
10432;SDS011;5263;48.680;9.004;2023-12-07T01:11:03;9.30;;;7.07;;
10432;SDS011;5263;48.680;9.004;2023-12-07T01:13:29;9.03;;;7.10;;
10432;SDS011;5263;48.680;9.004;2023-12-07T01:15:55;9.77;;;6.63;;
10432;SDS011;5263;48.680;9.004;2023-12-07T01:18:21;10.37;;;7.73;;
10432;SDS011;5263;48.680;9.004;2023-12-07T01:20:47;9.70;;;7.43;;
10432;SDS011;5263;48.680;9.004;2023-12-07T01:23:13;18.07;;;9.07;;
10432;SDS011;5263;48.680;9.004;2023-12-07T01:25:39;8.13;;;7.13;;
10432;SDS011;5263;48.680;9.004;2023-12-07T01:28:04;8.77;;;6.80;;
10432;SDS011;5263;48.680;9.004;2023-12-07T01:30:30;11.87;;;7.67;;
10432;SDS011;5263;48.680;9.004;2023-12-07T01:32:56;8.87;;;7.33;;
10432;SDS011;5263;48.680;9.004;2023-12-07T01:35:22;8.13;;;6.30;;
10432;SDS011;5263;48.680;9.004;2023-12-07T01:37:47;9.73;;;5.60;;
10432;SDS011;5263;48.680;9.004;2023-12-07T01:40:13;9.23;;;6.43;;
10432;SDS011;5263;48.680;9.004;2023-12-07T01:42:40;9.50;;;7.33;;
10432;SDS011;5263;48.680;9.004;2023-12-07T01:45:13;8.33;;;7.07;;
10432;SDS011;5263;48.680;9.004;2023-12-07T01:47:39;8.97;;;7.67;;
10432;SDS011;5263;48.680;9.004;2023-12-07T01:50:06;8.93;;;7.13;;
10432;SDS011;5263;48.680;9.004;2023-12-07T01:52:35;13.07;;;8.77;;
10432;SDS011;5263;48.680;9.004;2023-12-07T01:55:03;8.37;;;6.93;;
10432;SDS011;5263;48.680;9.004;2023-12-07T01:57:30;9.63;;;7.10;;
10432;SDS011;5263;48.680;9.004;2023-12-07T01:59:56;9.77;;;6.67;;
10432;SDS011;5263;48.680;9.004;2023-12-07T02:02:21;9.63;;;7.13;;
10432;SDS011;5263;48.680;9.004;2023-12-07T02:04:47;10.20;;;7.53;;
10432;SDS011;5263;48.680;9.004;2023-12-07T02:07:13;8.10;;;6.87;;
10432;SDS011;5263;48.680;9.004;2023-12-07T02:09:38;7.63;;;5.93;;
10432;SDS011;5263;48.680;9.004;2023-12-07T02:12:04;8.17;;;6.60;;
10432;SDS011;5263;48.680;9.004;2023-12-07T02:14:29;9.13;;;6.73;;
10432;SDS011;5263;48.680;9.004;2023-12-07T02:17:18;9.17;;;5.73;;
10432;SDS011;5263;48.680;9.004;2023-12-07T02:19:52;7.23;;;5.53;;
10432;SDS011;5263;48.680;9.004;2023-12-07T02:25:09;7.57;;;5.80;;
10432;SDS011;5263;48.680;9.004;2023-12-07T02:27:44;6.00;;;5.20;;
10432;SDS011;5263;48.680;9.004;2023-12-07T02:30:13;6.97;;;5.80;;
10432;SDS011;5263;48.680;9.004;2023-12-07T02:32:40;7.23;;;5.43;;
10432;SDS011;5263;48.680;9.004;2023-12-07T02:35:09;6.63;;;5.30;;
10432;SDS011;5263;48.680;9.004;2023-12-07T02:37:41;6.80;;;5.00;;
10432;SDS011;5263;48.680;9.004;2023-12-07T02:40:12;6.27;;;5.67;;
10432;SDS011;5263;48.680;9.004;2023-12-07T02:42:42;8.07;;;5.23;;
10432;SDS011;5263;48.680;9.004;2023-12-07T02:45:08;9.40;;;5.93;;
10432;SDS011;5263;48.680;9.004;2023-12-07T02:47:35;8.37;;;6.80;;
10432;SDS011;5263;48.680;9.004;2023-12-07T02:50:02;10.20;;;7.13;;
10432;SDS011;5263;48.680;9.004;2023-12-07T02:52:29;10.43;;;6.30;;
10432;SDS011;5263;48.680;9.004;2023-12-07T02:54:55;6.80;;;5.27;;
10432;SDS011;5263;48.680;9.004;2023-12-07T02:57:20;6.60;;;5.93;;
10432;SDS011;5263;48.680;9.004;2023-12-07T02:59:46;7.33;;;6.40;;
10432;SDS011;5263;48.680;9.004;2023-12-07T03:02:11;7.97;;;6.30;;
10432;SDS011;5263;48.680;9.004;2023-12-07T03:04:37;6.23;;;5.10;;
10432;SDS011;5263;48.680;9.004;2023-12-07T03:07:02;7.10;;;5.63;;
10432;SDS011;5263;48.680;9.004;2023-12-07T03:09:28;7.60;;;6.80;;
10432;SDS011;5263;48.680;9.004;2023-12-07T03:11:54;7.33;;;5.60;;
10432;SDS011;5263;48.680;9.004;2023-12-07T03:14:19;6.47;;;5.27;;
10432;SDS011;5263;48.680;9.004;2023-12-07T03:16:45;6.57;;;5.87;;
10432;SDS011;5263;48.680;9.004;2023-12-07T03:19:10;6.93;;;5.37;;
10432;SDS011;5263;48.680;9.004;2023-12-07T03:21:39;7.37;;;5.83;;
10432;SDS011;5263;48.680;9.004;2023-12-07T03:24:09;7.33;;;5.70;;
10432;SDS011;5263;48.680;9.004;2023-12-07T03:26:35;6.33;;;5.37;;
10432;SDS011;5263;48.680;9.004;2023-12-07T03:29:02;8.47;;;5.57;;
10432;SDS011;5263;48.680;9.004;2023-12-07T03:31:27;7.93;;;5.67;;
10432;SDS011;5263;48.680;9.004;2023-12-07T03:33:53;7.00;;;5.23;;
10432;SDS011;5263;48.680;9.004;2023-12-07T03:36:20;7.53;;;5.57;;
10432;SDS011;5263;48.680;9.004;2023-12-07T03:38:45;7.07;;;5.00;;
10432;SDS011;5263;48.680;9.004;2023-12-07T03:41:11;5.93;;;5.33;;
10432;SDS011;5263;48.680;9.004;2023-12-07T03:43:36;6.53;;;5.40;;
10432;SDS011;5263;48.680;9.004;2023-12-07T03:46:05;6.00;;;4.80;;
10432;SDS011;5263;48.680;9.004;2023-12-07T03:48:32;5.37;;;4.27;;
10432;SDS011;5263;48.680;9.004;2023-12-07T03:50:58;5.77;;;5.17;;
10432;SDS011;5263;48.680;9.004;2023-12-07T03:53:24;7.07;;;5.80;;
10432;SDS011;5263;48.680;9.004;2023-12-07T03:55:49;7.17;;;5.90;;
10432;SDS011;5263;48.680;9.004;2023-12-07T03:58:15;7.17;;;5.60;;
10432;SDS011;5263;48.680;9.004;2023-12-07T04:00:40;7.63;;;5.43;;
10432;SDS011;5263;48.680;9.004;2023-12-07T04:03:06;6.90;;;5.70;;
10432;SDS011;5263;48.680;9.004;2023-12-07T04:05:32;7.37;;;6.23;;
10432;SDS011;5263;48.680;9.004;2023-12-07T04:07:58;9.90;;;5.63;;
10432;SDS011;5263;48.680;9.004;2023-12-07T04:10:23;8.23;;;6.20;;
10432;SDS011;5263;48.680;9.004;2023-12-07T04:12:49;8.83;;;6.07;;
10432;SDS011;5263;48.680;9.004;2023-12-07T04:15:15;8.80;;;6.10;;
10432;SDS011;5263;48.680;9.004;2023-12-07T04:17:40;7.90;;;5.80;;
10432;SDS011;5263;48.680;9.004;2023-12-07T04:20:06;8.87;;;5.87;;
10432;SDS011;5263;48.680;9.004;2023-12-07T04:22:32;9.53;;;6.60;;
10432;SDS011;5263;48.680;9.004;2023-12-07T04:24:58;8.33;;;6.23;;
10432;SDS011;5263;48.680;9.004;2023-12-07T04:27:23;8.13;;;6.20;;
10432;SDS011;5263;48.680;9.004;2023-12-07T04:29:49;7.33;;;5.63;;
10432;SDS011;5263;48.680;9.004;2023-12-07T04:32:15;9.20;;;7.27;;
10432;SDS011;5263;48.680;9.004;2023-12-07T04:34:40;9.70;;;7.00;;
10432;SDS011;5263;48.680;9.004;2023-12-07T04:37:06;10.93;;;7.00;;
10432;SDS011;5263;48.680;9.004;2023-12-07T04:39:31;8.17;;;6.47;;
10432;SDS011;5263;48.680;9.004;2023-12-07T04:41:57;6.97;;;5.87;;
10432;SDS011;5263;48.680;9.004;2023-12-07T04:44:22;10.63;;;6.97;;
10432;SDS011;5263;48.680;9.004;2023-12-07T04:46:50;8.07;;;6.63;;
10432;SDS011;5263;48.680;9.004;2023-12-07T04:49:16;6.80;;;6.00;;
10432;SDS011;5263;48.680;9.004;2023-12-07T04:51:42;7.03;;;5.67;;
10432;SDS011;5263;48.680;9.004;2023-12-07T04:54:11;5.90;;;5.30;;
10432;SDS011;5263;48.680;9.004;2023-12-07T04:56:37;6.17;;;5.60;;
10432;SDS011;5263;48.680;9.004;2023-12-07T04:59:05;8.77;;;6.13;;
10432;SDS011;5263;48.680;9.004;2023-12-07T05:01:30;8.10;;;6.27;;
10432;SDS011;5263;48.680;9.004;2023-12-07T05:03:56;8.53;;;6.17;;
10432;SDS011;5263;48.680;9.004;2023-12-07T05:06:21;6.97;;;5.23;;
10432;SDS011;5263;48.680;9.004;2023-12-07T05:08:47;9.13;;;6.20;;
10432;SDS011;5263;48.680;9.004;2023-12-07T05:11:12;10.70;;;7.33;;
10432;SDS011;5263;48.680;9.004;2023-12-07T05:13:38;11.77;;;7.20;;
10432;SDS011;5263;48.680;9.004;2023-12-07T05:16:03;9.10;;;6.43;;
10432;SDS011;5263;48.680;9.004;2023-12-07T05:18:29;10.37;;;6.90;;
10432;SDS011;5263;48.680;9.004;2023-12-07T05:20:55;7.93;;;5.50;;
10432;SDS011;5263;48.680;9.004;2023-12-07T05:23:21;6.70;;;5.00;;
10432;SDS011;5263;48.680;9.004;2023-12-07T05:25:47;6.03;;;5.43;;
10432;SDS011;5263;48.680;9.004;2023-12-07T05:28:12;7.40;;;5.63;;
10432;SDS011;5263;48.680;9.004;2023-12-07T05:30:38;5.93;;;4.97;;
10432;SDS011;5263;48.680;9.004;2023-12-07T05:33:03;6.67;;;5.17;;
10432;SDS011;5263;48.680;9.004;2023-12-07T05:35:29;6.70;;;5.10;;
10432;SDS011;5263;48.680;9.004;2023-12-07T05:37:54;7.40;;;6.27;;
10432;SDS011;5263;48.680;9.004;2023-12-07T05:40:20;9.00;;;6.40;;
10432;SDS011;5263;48.680;9.004;2023-12-07T05:42:49;8.70;;;5.80;;
10432;SDS011;5263;48.680;9.004;2023-12-07T05:45:15;8.90;;;6.87;;
10432;SDS011;5263;48.680;9.004;2023-12-07T05:47:41;7.43;;;6.07;;
10432;SDS011;5263;48.680;9.004;2023-12-07T05:50:07;6.97;;;6.17;;
10432;SDS011;5263;48.680;9.004;2023-12-07T05:52:33;10.27;;;6.07;;
10432;SDS011;5263;48.680;9.004;2023-12-07T05:54:58;6.00;;;5.20;;
10432;SDS011;5263;48.680;9.004;2023-12-07T05:57:24;8.37;;;6.03;;
10432;SDS011;5263;48.680;9.004;2023-12-07T05:59:49;8.57;;;5.57;;
10432;SDS011;5263;48.680;9.004;2023-12-07T06:02:15;8.83;;;6.90;;
10432;SDS011;5263;48.680;9.004;2023-12-07T06:04:40;9.33;;;7.30;;
10432;SDS011;5263;48.680;9.004;2023-12-07T06:07:06;8.53;;;6.40;;
10432;SDS011;5263;48.680;9.004;2023-12-07T06:09:32;7.93;;;6.10;;
10432;SDS011;5263;48.680;9.004;2023-12-07T06:11:57;7.50;;;6.50;;
10432;SDS011;5263;48.680;9.004;2023-12-07T06:14:23;9.30;;;6.20;;
10432;SDS011;5263;48.680;9.004;2023-12-07T06:16:49;9.17;;;6.93;;
10432;SDS011;5263;48.680;9.004;2023-12-07T06:19:14;11.77;;;7.20;;
10432;SDS011;5263;48.680;9.004;2023-12-07T06:21:40;10.43;;;6.67;;
10432;SDS011;5263;48.680;9.004;2023-12-07T06:24:05;10.23;;;7.20;;
10432;SDS011;5263;48.680;9.004;2023-12-07T06:26:32;9.93;;;7.17;;
10432;SDS011;5263;48.680;9.004;2023-12-07T06:28:57;10.90;;;7.03;;
10432;SDS011;5263;48.680;9.004;2023-12-07T06:31:23;9.20;;;6.37;;
10432;SDS011;5263;48.680;9.004;2023-12-07T06:33:49;9.77;;;6.83;;
10432;SDS011;5263;48.680;9.004;2023-12-07T06:36:21;14.80;;;7.27;;
10432;SDS011;5263;48.680;9.004;2023-12-07T06:38:47;7.17;;;6.10;;
10432;SDS011;5263;48.680;9.004;2023-12-07T06:41:13;11.43;;;6.73;;
10432;SDS011;5263;48.680;9.004;2023-12-07T06:43:40;11.60;;;7.40;;
10432;SDS011;5263;48.680;9.004;2023-12-07T06:46:06;12.47;;;6.93;;
10432;SDS011;5263;48.680;9.004;2023-12-07T06:48:32;9.23;;;7.07;;
10432;SDS011;5263;48.680;9.004;2023-12-07T06:50:57;11.63;;;6.70;;
10432;SDS011;5263;48.680;9.004;2023-12-07T06:53:23;9.23;;;6.60;;
10432;SDS011;5263;48.680;9.004;2023-12-07T06:55:49;10.00;;;7.67;;
10432;SDS011;5263;48.680;9.004;2023-12-07T06:58:14;10.13;;;7.47;;
10432;SDS011;5263;48.680;9.004;2023-12-07T07:00:40;11.30;;;7.37;;
10432;SDS011;5263;48.680;9.004;2023-12-07T07:03:05;11.70;;;8.50;;
10432;SDS011;5263;48.680;9.004;2023-12-07T07:05:31;11.70;;;7.57;;
10432;SDS011;5263;48.680;9.004;2023-12-07T07:07:57;13.37;;;8.13;;
10432;SDS011;5263;48.680;9.004;2023-12-07T07:10:22;12.80;;;8.37;;
10432;SDS011;5263;48.680;9.004;2023-12-07T07:12:48;13.73;;;8.70;;
10432;SDS011;5263;48.680;9.004;2023-12-07T07:15:15;14.13;;;9.37;;
10432;SDS011;5263;48.680;9.004;2023-12-07T07:17:41;15.87;;;10.70;;
10432;SDS011;5263;48.680;9.004;2023-12-07T07:20:06;19.00;;;12.47;;
10432;SDS011;5263;48.680;9.004;2023-12-07T07:22:32;18.57;;;10.87;;
10432;SDS011;5263;48.680;9.004;2023-12-07T07:24:59;15.00;;;9.37;;
10432;SDS011;5263;48.680;9.004;2023-12-07T07:27:25;9.90;;;8.13;;
10432;SDS011;5263;48.680;9.004;2023-12-07T07:29:50;11.97;;;7.53;;
10432;SDS011;5263;48.680;9.004;2023-12-07T07:32:17;19.00;;;10.67;;
10432;SDS011;5263;48.680;9.004;2023-12-07T07:34:42;15.13;;;9.63;;
10432;SDS011;5263;48.680;9.004;2023-12-07T07:37:08;18.57;;;10.47;;
10432;SDS011;5263;48.680;9.004;2023-12-07T07:39:33;15.60;;;9.40;;
10432;SDS011;5263;48.680;9.004;2023-12-07T07:41:59;17.70;;;10.30;;
10432;SDS011;5263;48.680;9.004;2023-12-07T07:44:25;14.30;;;8.33;;
10432;SDS011;5263;48.680;9.004;2023-12-07T07:46:51;16.27;;;10.50;;
10432;SDS011;5263;48.680;9.004;2023-12-07T07:49:16;15.13;;;10.17;;
10432;SDS011;5263;48.680;9.004;2023-12-07T07:51:42;15.87;;;12.13;;
10432;SDS011;5263;48.680;9.004;2023-12-07T07:54:07;18.23;;;11.50;;
10432;SDS011;5263;48.680;9.004;2023-12-07T07:56:33;16.63;;;11.23;;
10432;SDS011;5263;48.680;9.004;2023-12-07T07:58:59;26.07;;;13.30;;
10432;SDS011;5263;48.680;9.004;2023-12-07T08:01:25;17.53;;;11.73;;
10432;SDS011;5263;48.680;9.004;2023-12-07T08:03:51;17.00;;;11.93;;
10432;SDS011;5263;48.680;9.004;2023-12-07T08:06:17;16.77;;;11.20;;
10432;SDS011;5263;48.680;9.004;2023-12-07T08:08:42;17.20;;;11.63;;
10432;SDS011;5263;48.680;9.004;2023-12-07T08:11:08;17.20;;;11.60;;
10432;SDS011;5263;48.680;9.004;2023-12-07T08:13:33;17.27;;;11.37;;
10432;SDS011;5263;48.680;9.004;2023-12-07T08:15:59;17.83;;;11.77;;
10432;SDS011;5263;48.680;9.004;2023-12-07T08:18:24;19.37;;;12.23;;
10432;SDS011;5263;48.680;9.004;2023-12-07T08:20:51;18.63;;;12.20;;
10432;SDS011;5263;48.680;9.004;2023-12-07T08:23:16;18.53;;;11.47;;
10432;SDS011;5263;48.680;9.004;2023-12-07T08:25:42;18.53;;;10.90;;
10432;SDS011;5263;48.680;9.004;2023-12-07T08:28:08;14.60;;;11.23;;
10432;SDS011;5263;48.680;9.004;2023-12-07T08:30:34;23.47;;;12.90;;
10432;SDS011;5263;48.680;9.004;2023-12-07T08:33:00;15.90;;;10.70;;
10432;SDS011;5263;48.680;9.004;2023-12-07T08:35:25;20.13;;;11.13;;
10432;SDS011;5263;48.680;9.004;2023-12-07T08:37:51;15.97;;;11.27;;
10432;SDS011;5263;48.680;9.004;2023-12-07T08:40:17;17.77;;;12.17;;
10432;SDS011;5263;48.680;9.004;2023-12-07T08:42:45;24.00;;;12.30;;
10432;SDS011;5263;48.680;9.004;2023-12-07T08:45:12;15.33;;;11.63;;
10432;SDS011;5263;48.680;9.004;2023-12-07T08:47:41;19.17;;;11.90;;
10432;SDS011;5263;48.680;9.004;2023-12-07T08:50:07;17.70;;;12.03;;
10432;SDS011;5263;48.680;9.004;2023-12-07T08:52:33;15.27;;;10.80;;
10432;SDS011;5263;48.680;9.004;2023-12-07T08:54:59;11.60;;;8.57;;
10432;SDS011;5263;48.680;9.004;2023-12-07T08:57:24;14.73;;;8.70;;
10432;SDS011;5263;48.680;9.004;2023-12-07T08:59:50;11.57;;;8.00;;
10432;SDS011;5263;48.680;9.004;2023-12-07T09:02:15;9.33;;;7.23;;
10432;SDS011;5263;48.680;9.004;2023-12-07T09:04:41;11.33;;;8.77;;
10432;SDS011;5263;48.680;9.004;2023-12-07T09:07:07;7.73;;;6.90;;
10432;SDS011;5263;48.680;9.004;2023-12-07T09:09:34;8.70;;;7.13;;
10432;SDS011;5263;48.680;9.004;2023-12-07T09:12:00;7.70;;;6.63;;
10432;SDS011;5263;48.680;9.004;2023-12-07T09:14:25;12.67;;;7.93;;
10432;SDS011;5263;48.680;9.004;2023-12-07T09:16:54;7.87;;;6.67;;
10432;SDS011;5263;48.680;9.004;2023-12-07T09:19:20;10.93;;;7.70;;
10432;SDS011;5263;48.680;9.004;2023-12-07T09:21:45;8.70;;;6.17;;
10432;SDS011;5263;48.680;9.004;2023-12-07T09:24:11;8.57;;;7.10;;
10432;SDS011;5263;48.680;9.004;2023-12-07T09:26:37;9.50;;;6.40;;
10432;SDS011;5263;48.680;9.004;2023-12-07T09:29:02;7.37;;;5.97;;
10432;SDS011;5263;48.680;9.004;2023-12-07T09:31:28;6.77;;;6.10;;
10432;SDS011;5263;48.680;9.004;2023-12-07T09:33:53;11.10;;;5.90;;
10432;SDS011;5263;48.680;9.004;2023-12-07T09:36:19;6.87;;;6.17;;
10432;SDS011;5263;48.680;9.004;2023-12-07T09:38:46;8.30;;;5.67;;
10432;SDS011;5263;48.680;9.004;2023-12-07T09:41:12;7.27;;;4.73;;
10432;SDS011;5263;48.680;9.004;2023-12-07T09:43:38;4.63;;;3.73;;
10432;SDS011;5263;48.680;9.004;2023-12-07T09:46:04;5.40;;;4.53;;
10432;SDS011;5263;48.680;9.004;2023-12-07T09:48:31;4.03;;;3.63;;
10432;SDS011;5263;48.680;9.004;2023-12-07T09:50:57;3.47;;;3.17;;
10432;SDS011;5263;48.680;9.004;2023-12-07T09:53:25;2.23;;;2.10;;
10432;SDS011;5263;48.680;9.004;2023-12-07T09:55:53;3.00;;;2.43;;
10432;SDS011;5263;48.680;9.004;2023-12-07T09:58:19;3.30;;;2.33;;
10432;SDS011;5263;48.680;9.004;2023-12-07T10:00:46;3.13;;;2.83;;
10432;SDS011;5263;48.680;9.004;2023-12-07T10:03:19;4.77;;;2.60;;
10432;SDS011;5263;48.680;9.004;2023-12-07T10:06:20;3.27;;;3.07;;
10432;SDS011;5263;48.680;9.004;2023-12-07T10:08:39;5.30;;;2.87;;
10432;SDS011;5263;48.680;9.004;2023-12-07T10:11:08;3.63;;;3.33;;
10432;SDS011;5263;48.680;9.004;2023-12-07T10:13:35;2.97;;;2.70;;
10432;SDS011;5263;48.680;9.004;2023-12-07T10:16:20;3.47;;;3.17;;
10432;SDS011;5263;48.680;9.004;2023-12-07T10:18:45;3.23;;;2.90;;
10432;SDS011;5263;48.680;9.004;2023-12-07T10:21:12;3.90;;;2.40;;
10432;SDS011;5263;48.680;9.004;2023-12-07T10:23:38;4.23;;;2.33;;
10432;SDS011;5263;48.680;9.004;2023-12-07T10:26:06;3.27;;;1.60;;
10432;SDS011;5263;48.680;9.004;2023-12-07T10:28:33;2.60;;;1.37;;
10432;SDS011;5263;48.680;9.004;2023-12-07T10:31:00;1.67;;;1.47;;
10432;SDS011;5263;48.680;9.004;2023-12-07T10:33:26;1.40;;;1.30;;
10432;SDS011;5263;48.680;9.004;2023-12-07T10:35:52;2.57;;;1.13;;
10432;SDS011;5263;48.680;9.004;2023-12-07T10:38:17;2.57;;;2.10;;
10432;SDS011;5263;48.680;9.004;2023-12-07T10:40:45;2.20;;;1.90;;
10432;SDS011;5263;48.680;9.004;2023-12-07T10:43:11;1.87;;;1.77;;
10432;SDS011;5263;48.680;9.004;2023-12-07T10:45:38;3.83;;;1.97;;
10432;SDS011;5263;48.680;9.004;2023-12-07T10:48:10;2.60;;;2.43;;
10432;SDS011;5263;48.680;9.004;2023-12-07T10:50:45;2.33;;;2.20;;
10432;SDS011;5263;48.680;9.004;2023-12-07T10:53:22;1.80;;;1.60;;
10432;SDS011;5263;48.680;9.004;2023-12-07T10:56:01;2.73;;;2.43;;
10432;SDS011;5263;48.680;9.004;2023-12-07T10:58:27;2.37;;;2.10;;
10432;SDS011;5263;48.680;9.004;2023-12-07T11:00:53;2.80;;;2.27;;
10432;SDS011;5263;48.680;9.004;2023-12-07T11:03:19;3.87;;;1.80;;
10432;SDS011;5263;48.680;9.004;2023-12-07T11:05:47;2.43;;;2.23;;
10432;SDS011;5263;48.680;9.004;2023-12-07T11:08:16;1.33;;;1.30;;
10432;SDS011;5263;48.680;9.004;2023-12-07T11:11:20;1.63;;;1.53;;
10432;SDS011;5263;48.680;9.004;2023-12-07T11:13:58;2.27;;;1.40;;
10432;SDS011;5263;48.680;9.004;2023-12-07T11:16:35;2.27;;;1.80;;
10432;SDS011;5263;48.680;9.004;2023-12-07T11:19:02;1.60;;;1.23;;
10432;SDS011;5263;48.680;9.004;2023-12-07T11:21:29;1.47;;;1.10;;
10432;SDS011;5263;48.680;9.004;2023-12-07T11:23:56;1.57;;;1.47;;
10432;SDS011;5263;48.680;9.004;2023-12-07T11:26:25;1.20;;;1.10;;
10432;SDS011;5263;48.680;9.004;2023-12-07T11:28:51;1.87;;;1.10;;
10432;SDS011;5263;48.680;9.004;2023-12-07T11:31:19;1.33;;;0.90;;
10432;SDS011;5263;48.680;9.004;2023-12-07T11:33:46;1.60;;;1.00;;
10432;SDS011;5263;48.680;9.004;2023-12-07T11:36:12;1.07;;;0.97;;
10432;SDS011;5263;48.680;9.004;2023-12-07T11:41:33;2.70;;;1.10;;
10432;SDS011;5263;48.680;9.004;2023-12-07T11:44:00;2.27;;;0.90;;
10432;SDS011;5263;48.680;9.004;2023-12-07T11:46:26;1.00;;;1.00;;
10432;SDS011;5263;48.680;9.004;2023-12-07T11:48:51;1.47;;;1.20;;
10432;SDS011;5263;48.680;9.004;2023-12-07T11:51:17;1.33;;;1.23;;
10432;SDS011;5263;48.680;9.004;2023-12-07T11:53:43;4.77;;;1.20;;
10432;SDS011;5263;48.680;9.004;2023-12-07T11:56:09;0.90;;;0.90;;
10432;SDS011;5263;48.680;9.004;2023-12-07T11:58:35;3.03;;;0.90;;
10432;SDS011;5263;48.680;9.004;2023-12-07T12:01:02;0.80;;;0.80;;
10432;SDS011;5263;48.680;9.004;2023-12-07T12:03:29;2.83;;;1.00;;
10432;SDS011;5263;48.680;9.004;2023-12-07T12:05:59;1.23;;;0.90;;
10432;SDS011;5263;48.680;9.004;2023-12-07T12:08:25;1.80;;;0.97;;
10432;SDS011;5263;48.680;9.004;2023-12-07T12:10:50;1.67;;;0.90;;
10432;SDS011;5263;48.680;9.004;2023-12-07T12:13:18;4.53;;;0.80;;
10432;SDS011;5263;48.680;9.004;2023-12-07T12:15:44;0.90;;;0.90;;
10432;SDS011;5263;48.680;9.004;2023-12-07T12:18:13;0.73;;;0.70;;
10432;SDS011;5263;48.680;9.004;2023-12-07T12:20:41;0.80;;;0.80;;
10432;SDS011;5263;48.680;9.004;2023-12-07T12:23:08;1.67;;;0.73;;
10432;SDS011;5263;48.680;9.004;2023-12-07T12:25:34;0.90;;;0.80;;
10432;SDS011;5263;48.680;9.004;2023-12-07T12:28:03;0.90;;;0.90;;
10432;SDS011;5263;48.680;9.004;2023-12-07T12:30:30;0.80;;;0.80;;
10432;SDS011;5263;48.680;9.004;2023-12-07T12:32:57;0.87;;;0.70;;
10432;SDS011;5263;48.680;9.004;2023-12-07T12:35:24;0.70;;;0.70;;
10432;SDS011;5263;48.680;9.004;2023-12-07T12:37:50;0.80;;;0.80;;
10432;SDS011;5263;48.680;9.004;2023-12-07T12:40:16;0.87;;;0.60;;
10432;SDS011;5263;48.680;9.004;2023-12-07T12:42:44;2.03;;;0.90;;
10432;SDS011;5263;48.680;9.004;2023-12-07T12:45:10;3.47;;;0.90;;
10432;SDS011;5263;48.680;9.004;2023-12-07T12:47:37;2.40;;;0.90;;
10432;SDS011;5263;48.680;9.004;2023-12-07T12:50:04;2.07;;;0.70;;
10432;SDS011;5263;48.680;9.004;2023-12-07T12:52:30;1.00;;;0.97;;
10432;SDS011;5263;48.680;9.004;2023-12-07T12:54:56;1.07;;;0.70;;
10432;SDS011;5263;48.680;9.004;2023-12-07T12:57:22;2.47;;;0.80;;
10432;SDS011;5263;48.680;9.004;2023-12-07T12:59:48;2.30;;;1.53;;
10432;SDS011;5263;48.680;9.004;2023-12-07T13:02:15;1.30;;;1.20;;
10432;SDS011;5263;48.680;9.004;2023-12-07T13:04:41;1.83;;;1.00;;
10432;SDS011;5263;48.680;9.004;2023-12-07T13:07:06;1.80;;;1.07;;
10432;SDS011;5263;48.680;9.004;2023-12-07T13:09:32;1.37;;;1.27;;
10432;SDS011;5263;48.680;9.004;2023-12-07T13:11:58;4.30;;;1.23;;
10432;SDS011;5263;48.680;9.004;2023-12-07T13:14:24;2.87;;;1.43;;
10432;SDS011;5263;48.680;9.004;2023-12-07T13:16:49;1.40;;;1.30;;
10432;SDS011;5263;48.680;9.004;2023-12-07T13:19:15;1.13;;;1.00;;
10432;SDS011;5263;48.680;9.004;2023-12-07T13:21:41;1.20;;;1.10;;
10432;SDS011;5263;48.680;9.004;2023-12-07T13:24:07;3.73;;;1.30;;
10432;SDS011;5263;48.680;9.004;2023-12-07T13:26:37;2.87;;;0.90;;
10432;SDS011;5263;48.680;9.004;2023-12-07T13:29:05;1.77;;;1.40;;
10432;SDS011;5263;48.680;9.004;2023-12-07T13:31:32;2.37;;;1.40;;
10432;SDS011;5263;48.680;9.004;2023-12-07T13:33:59;1.90;;;1.20;;
10432;SDS011;5263;48.680;9.004;2023-12-07T13:36:26;1.60;;;1.50;;
10432;SDS011;5263;48.680;9.004;2023-12-07T13:38:54;2.40;;;1.50;;
10432;SDS011;5263;48.680;9.004;2023-12-07T13:41:22;2.80;;;1.20;;
10432;SDS011;5263;48.680;9.004;2023-12-07T13:43:48;1.93;;;1.10;;
10432;SDS011;5263;48.680;9.004;2023-12-07T13:46:15;4.13;;;1.20;;
10432;SDS011;5263;48.680;9.004;2023-12-07T13:48:41;1.17;;;1.00;;
10432;SDS011;5263;48.680;9.004;2023-12-07T13:51:07;1.30;;;1.20;;
10432;SDS011;5263;48.680;9.004;2023-12-07T13:53:33;1.50;;;1.40;;
10432;SDS011;5263;48.680;9.004;2023-12-07T13:55:59;1.20;;;1.10;;
10432;SDS011;5263;48.680;9.004;2023-12-07T13:58:25;2.50;;;1.33;;
10432;SDS011;5263;48.680;9.004;2023-12-07T14:00:51;1.87;;;0.90;;
10432;SDS011;5263;48.680;9.004;2023-12-07T14:03:16;2.87;;;1.33;;
10432;SDS011;5263;48.680;9.004;2023-12-07T14:05:42;1.70;;;0.83;;
10432;SDS011;5263;48.680;9.004;2023-12-07T14:08:08;1.77;;;0.63;;
10432;SDS011;5263;48.680;9.004;2023-12-07T14:10:33;1.00;;;0.90;;
10432;SDS011;5263;48.680;9.004;2023-12-07T14:12:59;1.67;;;0.90;;
10432;SDS011;5263;48.680;9.004;2023-12-07T14:15:25;1.13;;;0.70;;
10432;SDS011;5263;48.680;9.004;2023-12-07T14:17:51;0.87;;;0.87;;
10432;SDS011;5263;48.680;9.004;2023-12-07T14:20:16;1.70;;;0.70;;
10432;SDS011;5263;48.680;9.004;2023-12-07T14:22:42;1.17;;;0.90;;
10432;SDS011;5263;48.680;9.004;2023-12-07T14:25:08;2.33;;;0.83;;
10432;SDS011;5263;48.680;9.004;2023-12-07T14:27:35;1.00;;;0.73;;
10432;SDS011;5263;48.680;9.004;2023-12-07T14:30:00;1.50;;;0.70;;
10432;SDS011;5263;48.680;9.004;2023-12-07T14:32:27;1.63;;;0.70;;
10432;SDS011;5263;48.680;9.004;2023-12-07T14:34:54;1.60;;;0.90;;
10432;SDS011;5263;48.680;9.004;2023-12-07T14:37:20;2.10;;;0.70;;
10432;SDS011;5263;48.680;9.004;2023-12-07T14:39:46;0.80;;;0.80;;
10432;SDS011;5263;48.680;9.004;2023-12-07T14:42:11;1.63;;;0.73;;
10432;SDS011;5263;48.680;9.004;2023-12-07T14:44:37;2.07;;;1.73;;
10432;SDS011;5263;48.680;9.004;2023-12-07T14:47:03;1.23;;;0.83;;
10432;SDS011;5263;48.680;9.004;2023-12-07T14:49:28;2.43;;;0.93;;
10432;SDS011;5263;48.680;9.004;2023-12-07T14:51:54;3.60;;;1.00;;
10432;SDS011;5263;48.680;9.004;2023-12-07T14:54:24;2.87;;;0.80;;
10432;SDS011;5263;48.680;9.004;2023-12-07T14:56:50;3.03;;;1.00;;